sensor_id;sensor_type;location;lat;lon;timestamp;P1;durP1;ratioP1;P2;durP2;ratioP2
76656;SDS011;65576;47.714;9.414;2024-03-25T00:00:38;4.38;;;0.63;;
76656;SDS011;65576;47.714;9.414;2024-03-25T00:03:03;0.25;;;0.25;;
76656;SDS011;65576;47.714;9.414;2024-03-25T00:05:29;0.38;;;0.30;;
76656;SDS011;65576;47.714;9.414;2024-03-25T00:07:55;0.20;;;0.20;;
76656;SDS011;65576;47.714;9.414;2024-03-25T00:10:21;0.43;;;0.32;;
76656;SDS011;65576;47.714;9.414;2024-03-25T00:12:47;0.30;;;0.30;;
76656;SDS011;65576;47.714;9.414;2024-03-25T00:15:17;1.27;;;0.75;;
76656;SDS011;65576;47.714;9.414;2024-03-25T00:17:44;3.42;;;1.00;;
76656;SDS011;65576;47.714;9.414;2024-03-25T00:20:09;0.65;;;0.65;;
76656;SDS011;65576;47.714;9.414;2024-03-25T00:22:35;0.32;;;0.32;;
76656;SDS011;65576;47.714;9.414;2024-03-25T00:25:01;1.17;;;0.85;;
76656;SDS011;65576;47.714;9.414;2024-03-25T00:27:26;0.85;;;0.60;;
76656;SDS011;65576;47.714;9.414;2024-03-25T00:29:51;1.17;;;0.98;;
76656;SDS011;65576;47.714;9.414;2024-03-25T00:32:17;1.58;;;1.10;;
76656;SDS011;65576;47.714;9.414;2024-03-25T00:34:42;0.43;;;0.40;;
76656;SDS011;65576;47.714;9.414;2024-03-25T00:37:07;0.77;;;0.63;;
76656;SDS011;65576;47.714;9.414;2024-03-25T00:39:33;0.38;;;0.38;;
76656;SDS011;65576;47.714;9.414;2024-03-25T00:41:59;0.35;;;0.35;;
76656;SDS011;65576;47.714;9.414;2024-03-25T00:44:25;1.08;;;0.65;;
76656;SDS011;65576;47.714;9.414;2024-03-25T00:46:50;0.20;;;0.20;;
76656;SDS011;65576;47.714;9.414;2024-03-25T00:49:16;5.45;;;0.75;;
76656;SDS011;65576;47.714;9.414;2024-03-25T00:51:41;0.65;;;0.47;;
76656;SDS011;65576;47.714;9.414;2024-03-25T00:54:06;0.47;;;0.43;;
76656;SDS011;65576;47.714;9.414;2024-03-25T00:56:32;1.23;;;1.13;;
76656;SDS011;65576;47.714;9.414;2024-03-25T00:58:57;0.55;;;0.55;;
76656;SDS011;65576;47.714;9.414;2024-03-25T01:01:27;0.40;;;0.40;;
76656;SDS011;65576;47.714;9.414;2024-03-25T01:03:56;9.73;;;0.75;;
76656;SDS011;65576;47.714;9.414;2024-03-25T01:06:22;0.50;;;0.50;;
76656;SDS011;65576;47.714;9.414;2024-03-25T01:08:47;0.73;;;0.63;;
76656;SDS011;65576;47.714;9.414;2024-03-25T01:11:13;7.78;;;0.60;;
76656;SDS011;65576;47.714;9.414;2024-03-25T01:13:38;0.50;;;0.50;;
76656;SDS011;65576;47.714;9.414;2024-03-25T01:16:03;0.40;;;0.40;;
76656;SDS011;65576;47.714;9.414;2024-03-25T01:18:29;0.93;;;0.88;;
76656;SDS011;65576;47.714;9.414;2024-03-25T01:20:54;0.95;;;0.73;;
76656;SDS011;65576;47.714;9.414;2024-03-25T01:23:20;7.72;;;0.30;;
76656;SDS011;65576;47.714;9.414;2024-03-25T01:25:45;0.30;;;0.30;;
76656;SDS011;65576;47.714;9.414;2024-03-25T01:28:10;0.47;;;0.47;;
76656;SDS011;65576;47.714;9.414;2024-03-25T01:30:36;0.50;;;0.50;;
76656;SDS011;65576;47.714;9.414;2024-03-25T01:33:04;4.47;;;0.68;;
76656;SDS011;65576;47.714;9.414;2024-03-25T01:35:30;0.90;;;0.38;;
76656;SDS011;65576;47.714;9.414;2024-03-25T01:37:55;1.55;;;0.30;;
76656;SDS011;65576;47.714;9.414;2024-03-25T01:40:21;0.63;;;0.63;;
76656;SDS011;65576;47.714;9.414;2024-03-25T01:42:59;0.88;;;0.80;;
76656;SDS011;65576;47.714;9.414;2024-03-25T01:45:25;0.65;;;0.63;;
76656;SDS011;65576;47.714;9.414;2024-03-25T01:47:56;0.88;;;0.70;;
76656;SDS011;65576;47.714;9.414;2024-03-25T01:50:21;0.40;;;0.38;;
76656;SDS011;65576;47.714;9.414;2024-03-25T01:52:47;0.70;;;0.60;;
76656;SDS011;65576;47.714;9.414;2024-03-25T01:55:17;0.55;;;0.55;;
76656;SDS011;65576;47.714;9.414;2024-03-25T01:57:44;0.65;;;0.38;;
76656;SDS011;65576;47.714;9.414;2024-03-25T02:00:10;0.88;;;0.65;;
76656;SDS011;65576;47.714;9.414;2024-03-25T02:02:36;0.30;;;0.30;;
76656;SDS011;65576;47.714;9.414;2024-03-25T02:05:03;0.90;;;0.70;;
76656;SDS011;65576;47.714;9.414;2024-03-25T02:07:30;0.68;;;0.57;;
76656;SDS011;65576;47.714;9.414;2024-03-25T02:09:56;0.55;;;0.55;;
76656;SDS011;65576;47.714;9.414;2024-03-25T02:12:21;0.80;;;0.68;;
76656;SDS011;65576;47.714;9.414;2024-03-25T02:14:47;0.40;;;0.40;;
76656;SDS011;65576;47.714;9.414;2024-03-25T02:17:12;0.65;;;0.63;;
76656;SDS011;65576;47.714;9.414;2024-03-25T02:19:38;1.65;;;0.95;;
76656;SDS011;65576;47.714;9.414;2024-03-25T02:22:04;1.63;;;0.70;;
76656;SDS011;65576;47.714;9.414;2024-03-25T02:24:29;1.02;;;0.75;;
76656;SDS011;65576;47.714;9.414;2024-03-25T02:26:55;0.65;;;0.65;;
76656;SDS011;65576;47.714;9.414;2024-03-25T02:29:20;0.80;;;0.80;;
76656;SDS011;65576;47.714;9.414;2024-03-25T02:31:45;1.63;;;0.75;;
76656;SDS011;65576;47.714;9.414;2024-03-25T02:34:12;1.35;;;0.80;;
76656;SDS011;65576;47.714;9.414;2024-03-25T02:36:37;0.77;;;0.60;;
76656;SDS011;65576;47.714;9.414;2024-03-25T02:39:02;0.22;;;0.22;;
76656;SDS011;65576;47.714;9.414;2024-03-25T02:41:29;1.35;;;0.88;;
76656;SDS011;65576;47.714;9.414;2024-03-25T02:43:55;0.30;;;0.30;;
76656;SDS011;65576;47.714;9.414;2024-03-25T02:46:21;3.20;;;0.45;;
76656;SDS011;65576;47.714;9.414;2024-03-25T02:48:46;0.68;;;0.68;;
76656;SDS011;65576;47.714;9.414;2024-03-25T02:51:12;1.85;;;0.80;;
76656;SDS011;65576;47.714;9.414;2024-03-25T02:53:37;0.80;;;0.65;;
76656;SDS011;65576;47.714;9.414;2024-03-25T02:56:02;9.73;;;0.95;;
76656;SDS011;65576;47.714;9.414;2024-03-25T02:58:28;0.60;;;0.60;;
76656;SDS011;65576;47.714;9.414;2024-03-25T03:00:53;0.70;;;0.70;;
76656;SDS011;65576;47.714;9.414;2024-03-25T03:03:18;0.55;;;0.55;;
76656;SDS011;65576;47.714;9.414;2024-03-25T03:05:44;1.00;;;1.00;;
76656;SDS011;65576;47.714;9.414;2024-03-25T03:08:09;0.17;;;0.17;;
76656;SDS011;65576;47.714;9.414;2024-03-25T03:10:34;1.08;;;0.70;;
76656;SDS011;65576;47.714;9.414;2024-03-25T03:13:00;0.85;;;0.52;;
76656;SDS011;65576;47.714;9.414;2024-03-25T03:15:25;0.80;;;0.80;;
76656;SDS011;65576;47.714;9.414;2024-03-25T03:17:50;0.43;;;0.43;;
76656;SDS011;65576;47.714;9.414;2024-03-25T03:20:15;0.30;;;0.30;;
76656;SDS011;65576;47.714;9.414;2024-03-25T03:22:41;0.63;;;0.63;;
76656;SDS011;65576;47.714;9.414;2024-03-25T03:25:07;2.17;;;0.47;;
76656;SDS011;65576;47.714;9.414;2024-03-25T03:27:32;0.50;;;0.50;;
76656;SDS011;65576;47.714;9.414;2024-03-25T03:29:57;1.35;;;0.80;;
76656;SDS011;65576;47.714;9.414;2024-03-25T03:32:23;0.82;;;0.73;;
76656;SDS011;65576;47.714;9.414;2024-03-25T03:34:48;0.60;;;0.43;;
76656;SDS011;65576;47.714;9.414;2024-03-25T03:37:13;0.40;;;0.40;;
76656;SDS011;65576;47.714;9.414;2024-03-25T03:39:39;0.43;;;0.43;;
76656;SDS011;65576;47.714;9.414;2024-03-25T03:42:04;2.22;;;1.02;;
76656;SDS011;65576;47.714;9.414;2024-03-25T03:44:29;0.43;;;0.43;;
76656;SDS011;65576;47.714;9.414;2024-03-25T03:46:55;0.60;;;0.60;;
76656;SDS011;65576;47.714;9.414;2024-03-25T03:49:20;0.50;;;0.50;;
76656;SDS011;65576;47.714;9.414;2024-03-25T03:51:45;0.52;;;0.52;;
76656;SDS011;65576;47.714;9.414;2024-03-25T03:54:11;0.30;;;0.30;;
76656;SDS011;65576;47.714;9.414;2024-03-25T03:56:36;0.40;;;0.40;;
76656;SDS011;65576;47.714;9.414;2024-03-25T03:59:02;1.30;;;0.82;;
76656;SDS011;65576;47.714;9.414;2024-03-25T04:01:27;1.80;;;0.80;;
76656;SDS011;65576;47.714;9.414;2024-03-25T04:03:53;2.58;;;0.77;;
76656;SDS011;65576;47.714;9.414;2024-03-25T04:06:18;6.53;;;1.00;;
76656;SDS011;65576;47.714;9.414;2024-03-25T04:08:44;0.30;;;0.30;;
76656;SDS011;65576;47.714;9.414;2024-03-25T04:11:09;0.45;;;0.45;;
76656;SDS011;65576;47.714;9.414;2024-03-25T04:13:35;0.43;;;0.43;;
76656;SDS011;65576;47.714;9.414;2024-03-25T04:16:04;0.30;;;0.30;;
76656;SDS011;65576;47.714;9.414;2024-03-25T04:18:31;1.05;;;0.65;;
76656;SDS011;65576;47.714;9.414;2024-03-25T04:20:57;0.28;;;0.22;;
76656;SDS011;65576;47.714;9.414;2024-03-25T04:23:23;0.63;;;0.60;;
76656;SDS011;65576;47.714;9.414;2024-03-25T04:25:49;0.43;;;0.43;;
76656;SDS011;65576;47.714;9.414;2024-03-25T04:28:14;0.47;;;0.47;;
76656;SDS011;65576;47.714;9.414;2024-03-25T04:30:39;0.50;;;0.50;;
76656;SDS011;65576;47.714;9.414;2024-03-25T04:33:05;0.65;;;0.45;;
76656;SDS011;65576;47.714;9.414;2024-03-25T04:35:30;0.70;;;0.70;;
76656;SDS011;65576;47.714;9.414;2024-03-25T04:37:55;1.25;;;0.85;;
76656;SDS011;65576;47.714;9.414;2024-03-25T04:40:21;0.75;;;0.75;;
76656;SDS011;65576;47.714;9.414;2024-03-25T04:42:46;0.20;;;0.20;;
76656;SDS011;65576;47.714;9.414;2024-03-25T04:45:12;0.68;;;0.57;;
76656;SDS011;65576;47.714;9.414;2024-03-25T04:47:38;0.50;;;0.50;;
76656;SDS011;65576;47.714;9.414;2024-03-25T04:50:04;3.40;;;0.82;;
76656;SDS011;65576;47.714;9.414;2024-03-25T04:52:30;0.95;;;0.65;;
76656;SDS011;65576;47.714;9.414;2024-03-25T04:54:55;0.68;;;0.68;;
76656;SDS011;65576;47.714;9.414;2024-03-25T04:57:21;0.32;;;0.32;;
76656;SDS011;65576;47.714;9.414;2024-03-25T04:59:46;1.15;;;0.70;;
76656;SDS011;65576;47.714;9.414;2024-03-25T05:02:11;0.52;;;0.52;;
76656;SDS011;65576;47.714;9.414;2024-03-25T05:04:37;0.30;;;0.30;;
76656;SDS011;65576;47.714;9.414;2024-03-25T05:07:02;0.55;;;0.55;;
76656;SDS011;65576;47.714;9.414;2024-03-25T05:09:28;0.93;;;0.70;;
76656;SDS011;65576;47.714;9.414;2024-03-25T05:11:53;0.90;;;0.75;;
76656;SDS011;65576;47.714;9.414;2024-03-25T05:14:18;0.63;;;0.63;;
76656;SDS011;65576;47.714;9.414;2024-03-25T05:16:44;0.40;;;0.40;;
76656;SDS011;65576;47.714;9.414;2024-03-25T05:19:09;1.85;;;0.85;;
76656;SDS011;65576;47.714;9.414;2024-03-25T05:21:34;1.42;;;1.33;;
76656;SDS011;65576;47.714;9.414;2024-03-25T05:24:00;1.27;;;1.10;;
76656;SDS011;65576;47.714;9.414;2024-03-25T05:26:25;0.95;;;0.93;;
76656;SDS011;65576;47.714;9.414;2024-03-25T05:28:53;5.68;;;2.17;;
76656;SDS011;65576;47.714;9.414;2024-03-25T05:31:19;9.20;;;5.22;;
76656;SDS011;65576;47.714;9.414;2024-03-25T05:33:44;17.95;;;8.60;;
76656;SDS011;65576;47.714;9.414;2024-03-25T05:36:10;14.93;;;5.60;;
76656;SDS011;65576;47.714;9.414;2024-03-25T05:38:35;1.08;;;0.95;;
76656;SDS011;65576;47.714;9.414;2024-03-25T05:41:00;1.75;;;1.48;;
76656;SDS011;65576;47.714;9.414;2024-03-25T05:43:26;2.20;;;1.63;;
76656;SDS011;65576;47.714;9.414;2024-03-25T05:45:52;1.98;;;1.10;;
76656;SDS011;65576;47.714;9.414;2024-03-25T05:48:18;1.75;;;1.48;;
76656;SDS011;65576;47.714;9.414;2024-03-25T05:50:43;3.33;;;2.20;;
76656;SDS011;65576;47.714;9.414;2024-03-25T05:53:09;7.97;;;2.22;;
76656;SDS011;65576;47.714;9.414;2024-03-25T05:55:34;0.98;;;0.75;;
76656;SDS011;65576;47.714;9.414;2024-03-25T05:57:59;1.00;;;0.70;;
76656;SDS011;65576;47.714;9.414;2024-03-25T06:00:25;1.40;;;1.25;;
76656;SDS011;65576;47.714;9.414;2024-03-25T06:02:51;2.08;;;1.45;;
76656;SDS011;65576;47.714;9.414;2024-03-25T06:05:18;1.35;;;1.25;;
76656;SDS011;65576;47.714;9.414;2024-03-25T06:07:43;1.33;;;1.10;;
76656;SDS011;65576;47.714;9.414;2024-03-25T06:10:09;0.65;;;0.65;;
76656;SDS011;65576;47.714;9.414;2024-03-25T06:12:34;2.72;;;0.52;;
76656;SDS011;65576;47.714;9.414;2024-03-25T06:14:59;3.50;;;1.05;;
76656;SDS011;65576;47.714;9.414;2024-03-25T06:17:25;1.02;;;0.93;;
76656;SDS011;65576;47.714;9.414;2024-03-25T06:19:50;1.58;;;0.98;;
76656;SDS011;65576;47.714;9.414;2024-03-25T06:22:16;0.40;;;0.40;;
76656;SDS011;65576;47.714;9.414;2024-03-25T06:24:42;0.65;;;0.65;;
76656;SDS011;65576;47.714;9.414;2024-03-25T06:27:08;1.30;;;0.98;;
76656;SDS011;65576;47.714;9.414;2024-03-25T06:29:33;0.65;;;0.65;;
76656;SDS011;65576;47.714;9.414;2024-03-25T06:32:00;1.02;;;0.95;;
76656;SDS011;65576;47.714;9.414;2024-03-25T06:34:44;1.85;;;1.13;;
76656;SDS011;65576;47.714;9.414;2024-03-25T06:37:09;0.55;;;0.55;;
76656;SDS011;65576;47.714;9.414;2024-03-25T06:39:34;1.90;;;0.80;;
76656;SDS011;65576;47.714;9.414;2024-03-25T06:42:00;1.67;;;0.90;;
76656;SDS011;65576;47.714;9.414;2024-03-25T06:44:26;8.18;;;1.00;;
76656;SDS011;65576;47.714;9.414;2024-03-25T06:46:51;0.60;;;0.57;;
76656;SDS011;65576;47.714;9.414;2024-03-25T06:49:16;0.73;;;0.73;;
76656;SDS011;65576;47.714;9.414;2024-03-25T06:51:41;0.68;;;0.68;;
76656;SDS011;65576;47.714;9.414;2024-03-25T06:54:07;1.77;;;1.00;;
76656;SDS011;65576;47.714;9.414;2024-03-25T06:56:32;5.18;;;1.80;;
76656;SDS011;65576;47.714;9.414;2024-03-25T06:58:57;1.58;;;1.20;;
76656;SDS011;65576;47.714;9.414;2024-03-25T07:01:23;1.08;;;0.98;;
76656;SDS011;65576;47.714;9.414;2024-03-25T07:03:48;1.60;;;1.10;;
76656;SDS011;65576;47.714;9.414;2024-03-25T07:06:13;0.70;;;0.70;;
76656;SDS011;65576;47.714;9.414;2024-03-25T07:08:39;1.45;;;0.90;;
76656;SDS011;65576;47.714;9.414;2024-03-25T07:11:04;3.33;;;0.95;;
76656;SDS011;65576;47.714;9.414;2024-03-25T07:13:29;1.23;;;0.93;;
76656;SDS011;65576;47.714;9.414;2024-03-25T07:15:55;0.95;;;0.95;;
76656;SDS011;65576;47.714;9.414;2024-03-25T07:18:20;0.40;;;0.38;;
76656;SDS011;65576;47.714;9.414;2024-03-25T07:20:46;3.25;;;0.93;;
76656;SDS011;65576;47.714;9.414;2024-03-25T07:23:11;0.82;;;0.80;;
76656;SDS011;65576;47.714;9.414;2024-03-25T07:25:36;0.80;;;0.80;;
76656;SDS011;65576;47.714;9.414;2024-03-25T07:28:02;1.23;;;0.85;;
76656;SDS011;65576;47.714;9.414;2024-03-25T07:30:28;5.57;;;0.73;;
76656;SDS011;65576;47.714;9.414;2024-03-25T07:32:56;0.98;;;0.70;;
76656;SDS011;65576;47.714;9.414;2024-03-25T07:35:24;0.47;;;0.47;;
76656;SDS011;65576;47.714;9.414;2024-03-25T07:37:50;0.43;;;0.40;;
76656;SDS011;65576;47.714;9.414;2024-03-25T07:40:16;1.35;;;0.98;;
76656;SDS011;65576;47.714;9.414;2024-03-25T07:42:42;0.38;;;0.38;;
76656;SDS011;65576;47.714;9.414;2024-03-25T07:45:07;1.48;;;0.80;;
76656;SDS011;65576;47.714;9.414;2024-03-25T07:47:34;0.57;;;0.57;;
76656;SDS011;65576;47.714;9.414;2024-03-25T07:49:59;0.98;;;0.88;;
76656;SDS011;65576;47.714;9.414;2024-03-25T07:52:25;0.60;;;0.55;;
76656;SDS011;65576;47.714;9.414;2024-03-25T07:54:50;0.82;;;0.57;;
76656;SDS011;65576;47.714;9.414;2024-03-25T07:57:16;3.97;;;2.08;;
76656;SDS011;65576;47.714;9.414;2024-03-25T07:59:41;1.33;;;1.25;;
76656;SDS011;65576;47.714;9.414;2024-03-25T08:02:07;2.05;;;1.27;;
76656;SDS011;65576;47.714;9.414;2024-03-25T08:04:32;3.25;;;0.95;;
76656;SDS011;65576;47.714;9.414;2024-03-25T08:06:57;0.68;;;0.68;;
76656;SDS011;65576;47.714;9.414;2024-03-25T08:09:23;5.95;;;1.02;;
76656;SDS011;65576;47.714;9.414;2024-03-25T08:11:48;0.73;;;0.73;;
76656;SDS011;65576;47.714;9.414;2024-03-25T08:14:13;0.63;;;0.60;;
76656;SDS011;65576;47.714;9.414;2024-03-25T08:16:39;0.75;;;0.75;;
76656;SDS011;65576;47.714;9.414;2024-03-25T08:19:04;2.13;;;0.55;;
76656;SDS011;65576;47.714;9.414;2024-03-25T08:21:29;1.00;;;0.90;;
76656;SDS011;65576;47.714;9.414;2024-03-25T08:23:54;1.45;;;0.95;;
76656;SDS011;65576;47.714;9.414;2024-03-25T08:26:20;5.18;;;0.98;;
76656;SDS011;65576;47.714;9.414;2024-03-25T08:28:45;0.90;;;0.77;;
76656;SDS011;65576;47.714;9.414;2024-03-25T08:31:10;0.98;;;0.85;;
76656;SDS011;65576;47.714;9.414;2024-03-25T08:33:36;0.95;;;0.82;;
76656;SDS011;65576;47.714;9.414;2024-03-25T08:36:01;1.23;;;1.13;;
76656;SDS011;65576;47.714;9.414;2024-03-25T08:38:26;1.65;;;0.70;;
76656;SDS011;65576;47.714;9.414;2024-03-25T08:40:52;0.88;;;0.85;;
76656;SDS011;65576;47.714;9.414;2024-03-25T08:43:17;2.50;;;1.50;;
76656;SDS011;65576;47.714;9.414;2024-03-25T08:45:43;1.70;;;1.15;;
76656;SDS011;65576;47.714;9.414;2024-03-25T08:48:09;0.65;;;0.60;;
76656;SDS011;65576;47.714;9.414;2024-03-25T08:50:34;1.27;;;1.02;;
76656;SDS011;65576;47.714;9.414;2024-03-25T08:53:00;0.82;;;0.80;;
76656;SDS011;65576;47.714;9.414;2024-03-25T08:55:25;0.68;;;0.68;;
76656;SDS011;65576;47.714;9.414;2024-03-25T08:57:52;3.88;;;0.68;;
76656;SDS011;65576;47.714;9.414;2024-03-25T09:00:17;2.63;;;0.80;;
76656;SDS011;65576;47.714;9.414;2024-03-25T09:02:43;1.75;;;0.98;;
76656;SDS011;65576;47.714;9.414;2024-03-25T09:05:08;2.55;;;1.00;;
76656;SDS011;65576;47.714;9.414;2024-03-25T09:07:35;0.60;;;0.52;;
76656;SDS011;65576;47.714;9.414;2024-03-25T09:10:00;4.68;;;1.30;;
76656;SDS011;65576;47.714;9.414;2024-03-25T09:12:44;1.30;;;0.90;;
76656;SDS011;65576;47.714;9.414;2024-03-25T09:15:09;1.08;;;0.60;;
76656;SDS011;65576;47.714;9.414;2024-03-25T09:17:34;0.50;;;0.50;;
76656;SDS011;65576;47.714;9.414;2024-03-25T09:20:00;0.70;;;0.70;;
76656;SDS011;65576;47.714;9.414;2024-03-25T09:22:26;0.52;;;0.52;;
76656;SDS011;65576;47.714;9.414;2024-03-25T09:24:51;0.80;;;0.80;;
76656;SDS011;65576;47.714;9.414;2024-03-25T09:27:17;0.65;;;0.65;;
76656;SDS011;65576;47.714;9.414;2024-03-25T09:29:42;0.50;;;0.50;;
76656;SDS011;65576;47.714;9.414;2024-03-25T09:32:07;2.90;;;1.60;;
76656;SDS011;65576;47.714;9.414;2024-03-25T09:34:33;0.93;;;0.70;;
76656;SDS011;65576;47.714;9.414;2024-03-25T09:36:58;0.65;;;0.35;;
76656;SDS011;65576;47.714;9.414;2024-03-25T09:39:23;1.85;;;0.98;;
76656;SDS011;65576;47.714;9.414;2024-03-25T09:41:49;0.82;;;0.50;;
76656;SDS011;65576;47.714;9.414;2024-03-25T09:44:16;0.88;;;0.60;;
76656;SDS011;65576;47.714;9.414;2024-03-25T09:46:43;0.70;;;0.70;;
76656;SDS011;65576;47.714;9.414;2024-03-25T09:49:08;1.23;;;1.10;;
76656;SDS011;65576;47.714;9.414;2024-03-25T09:51:34;1.98;;;0.68;;
76656;SDS011;65576;47.714;9.414;2024-03-25T09:53:59;1.65;;;0.98;;
76656;SDS011;65576;47.714;9.414;2024-03-25T09:56:24;0.88;;;0.60;;
76656;SDS011;65576;47.714;9.414;2024-03-25T09:58:50;0.60;;;0.60;;
76656;SDS011;65576;47.714;9.414;2024-03-25T10:01:15;1.63;;;0.82;;
76656;SDS011;65576;47.714;9.414;2024-03-25T10:03:41;1.27;;;0.75;;
76656;SDS011;65576;47.714;9.414;2024-03-25T10:06:06;2.88;;;1.00;;
76656;SDS011;65576;47.714;9.414;2024-03-25T10:08:34;0.98;;;0.88;;
76656;SDS011;65576;47.714;9.414;2024-03-25T10:11:00;0.85;;;0.50;;
76656;SDS011;65576;47.714;9.414;2024-03-25T10:13:27;0.80;;;0.63;;
76656;SDS011;65576;47.714;9.414;2024-03-25T10:15:52;2.95;;;0.55;;
76656;SDS011;65576;47.714;9.414;2024-03-25T10:18:17;0.90;;;0.43;;
76656;SDS011;65576;47.714;9.414;2024-03-25T10:20:51;0.57;;;0.50;;
76656;SDS011;65576;47.714;9.414;2024-03-25T10:23:23;1.08;;;0.52;;
76656;SDS011;65576;47.714;9.414;2024-03-25T10:25:51;3.10;;;0.88;;
76656;SDS011;65576;47.714;9.414;2024-03-25T10:28:16;1.13;;;0.70;;
76656;SDS011;65576;47.714;9.414;2024-03-25T10:30:42;2.70;;;0.88;;
76656;SDS011;65576;47.714;9.414;2024-03-25T10:33:07;7.00;;;0.80;;
76656;SDS011;65576;47.714;9.414;2024-03-25T10:35:33;2.63;;;0.80;;
76656;SDS011;65576;47.714;9.414;2024-03-25T10:38:02;1.40;;;0.82;;
76656;SDS011;65576;47.714;9.414;2024-03-25T10:40:34;0.82;;;0.50;;
76656;SDS011;65576;47.714;9.414;2024-03-25T10:43:02;1.30;;;0.70;;
76656;SDS011;65576;47.714;9.414;2024-03-25T10:45:31;0.80;;;0.70;;
76656;SDS011;65576;47.714;9.414;2024-03-25T10:47:57;3.60;;;1.02;;
76656;SDS011;65576;47.714;9.414;2024-03-25T10:50:28;0.32;;;0.32;;
76656;SDS011;65576;47.714;9.414;2024-03-25T10:52:54;0.70;;;0.60;;
76656;SDS011;65576;47.714;9.414;2024-03-25T10:55:22;1.05;;;0.60;;
76656;SDS011;65576;47.714;9.414;2024-03-25T10:57:47;0.70;;;0.50;;
76656;SDS011;65576;47.714;9.414;2024-03-25T11:00:13;0.55;;;0.40;;
76656;SDS011;65576;47.714;9.414;2024-03-25T11:02:40;1.88;;;0.70;;
76656;SDS011;65576;47.714;9.414;2024-03-25T11:05:07;0.63;;;0.38;;
76656;SDS011;65576;47.714;9.414;2024-03-25T11:07:34;0.60;;;0.60;;
76656;SDS011;65576;47.714;9.414;2024-03-25T11:10:03;0.50;;;0.50;;
76656;SDS011;65576;47.714;9.414;2024-03-25T11:12:37;0.43;;;0.43;;
76656;SDS011;65576;47.714;9.414;2024-03-25T11:15:06;1.33;;;0.80;;
76656;SDS011;65576;47.714;9.414;2024-03-25T11:17:32;2.00;;;0.88;;
76656;SDS011;65576;47.714;9.414;2024-03-25T11:22:33;1.88;;;0.90;;
76656;SDS011;65576;47.714;9.414;2024-03-25T11:25:04;1.13;;;0.50;;
76656;SDS011;65576;47.714;9.414;2024-03-25T11:27:31;0.80;;;0.70;;
76656;SDS011;65576;47.714;9.414;2024-03-25T11:29:57;2.97;;;0.47;;
76656;SDS011;65576;47.714;9.414;2024-03-25T11:32:22;0.98;;;0.85;;
76656;SDS011;65576;47.714;9.414;2024-03-25T11:34:50;0.70;;;0.50;;
76656;SDS011;65576;47.714;9.414;2024-03-25T11:37:16;9.60;;;0.70;;
76656;SDS011;65576;47.714;9.414;2024-03-25T11:39:41;0.30;;;0.30;;
76656;SDS011;65576;47.714;9.414;2024-03-25T11:42:07;1.27;;;0.50;;
76656;SDS011;65576;47.714;9.414;2024-03-25T11:44:35;0.43;;;0.32;;
76656;SDS011;65576;47.714;9.414;2024-03-25T11:47:02;0.60;;;0.50;;
76656;SDS011;65576;47.714;9.414;2024-03-25T11:49:28;0.32;;;0.32;;
76656;SDS011;65576;47.714;9.414;2024-03-25T11:51:53;3.80;;;0.77;;
76656;SDS011;65576;47.714;9.414;2024-03-25T11:54:18;4.18;;;0.20;;
76656;SDS011;65576;47.714;9.414;2024-03-25T11:56:44;1.13;;;0.40;;
76656;SDS011;65576;47.714;9.414;2024-03-25T11:59:09;0.52;;;0.50;;
76656;SDS011;65576;47.714;9.414;2024-03-25T12:01:36;2.65;;;0.95;;
76656;SDS011;65576;47.714;9.414;2024-03-25T12:04:10;1.40;;;0.60;;
76656;SDS011;65576;47.714;9.414;2024-03-25T12:06:36;1.38;;;0.70;;
76656;SDS011;65576;47.714;9.414;2024-03-25T12:09:01;0.55;;;0.38;;
76656;SDS011;65576;47.714;9.414;2024-03-25T12:11:45;0.30;;;0.30;;
76656;SDS011;65576;47.714;9.414;2024-03-25T12:14:10;0.85;;;0.43;;
76656;SDS011;65576;47.714;9.414;2024-03-25T12:16:36;0.50;;;0.50;;
76656;SDS011;65576;47.714;9.414;2024-03-25T12:19:01;0.47;;;0.40;;
76656;SDS011;65576;47.714;9.414;2024-03-25T12:21:26;0.20;;;0.20;;
76656;SDS011;65576;47.714;9.414;2024-03-25T12:23:53;0.25;;;0.25;;
76656;SDS011;65576;47.714;9.414;2024-03-25T12:26:19;0.85;;;0.52;;
76656;SDS011;65576;47.714;9.414;2024-03-25T12:28:45;0.28;;;0.28;;
76656;SDS011;65576;47.714;9.414;2024-03-25T12:31:10;0.40;;;0.30;;
76656;SDS011;65576;47.714;9.414;2024-03-25T12:33:43;0.65;;;0.25;;
76656;SDS011;65576;47.714;9.414;2024-03-25T12:36:09;1.05;;;0.43;;
76656;SDS011;65576;47.714;9.414;2024-03-25T12:38:36;0.40;;;0.32;;
76656;SDS011;65576;47.714;9.414;2024-03-25T12:41:11;2.65;;;0.60;;
76656;SDS011;65576;47.714;9.414;2024-03-25T12:43:42;0.63;;;0.20;;
76656;SDS011;65576;47.714;9.414;2024-03-25T12:46:08;0.43;;;0.40;;
76656;SDS011;65576;47.714;9.414;2024-03-25T12:48:36;0.40;;;0.40;;
76656;SDS011;65576;47.714;9.414;2024-03-25T12:51:02;0.90;;;0.77;;
76656;SDS011;65576;47.714;9.414;2024-03-25T12:53:28;1.90;;;0.55;;
76656;SDS011;65576;47.714;9.414;2024-03-25T12:55:53;0.75;;;0.50;;
76656;SDS011;65576;47.714;9.414;2024-03-25T12:58:18;0.75;;;0.38;;
76656;SDS011;65576;47.714;9.414;2024-03-25T13:00:44;0.30;;;0.30;;
76656;SDS011;65576;47.714;9.414;2024-03-25T13:03:09;0.20;;;0.20;;
76656;SDS011;65576;47.714;9.414;2024-03-25T13:05:35;0.38;;;0.28;;
76656;SDS011;65576;47.714;9.414;2024-03-25T13:08:00;0.93;;;0.30;;
76656;SDS011;65576;47.714;9.414;2024-03-25T13:10:27;0.40;;;0.30;;
76656;SDS011;65576;47.714;9.414;2024-03-25T13:12:52;0.30;;;0.20;;
76656;SDS011;65576;47.714;9.414;2024-03-25T13:15:18;0.25;;;0.25;;
76656;SDS011;65576;47.714;9.414;2024-03-25T13:17:43;0.30;;;0.30;;
76656;SDS011;65576;47.714;9.414;2024-03-25T13:20:08;1.02;;;0.65;;
76656;SDS011;65576;47.714;9.414;2024-03-25T13:22:34;0.50;;;0.38;;
76656;SDS011;65576;47.714;9.414;2024-03-25T13:25:00;0.32;;;0.30;;
76656;SDS011;65576;47.714;9.414;2024-03-25T13:27:25;0.85;;;0.47;;
76656;SDS011;65576;47.714;9.414;2024-03-25T13:29:51;1.95;;;0.68;;
76656;SDS011;65576;47.714;9.414;2024-03-25T13:32:18;1.20;;;0.57;;
76656;SDS011;65576;47.714;9.414;2024-03-25T13:34:43;0.30;;;0.30;;
76656;SDS011;65576;47.714;9.414;2024-03-25T13:37:09;0.85;;;0.45;;
76656;SDS011;65576;47.714;9.414;2024-03-25T13:39:35;1.00;;;0.60;;
76656;SDS011;65576;47.714;9.414;2024-03-25T13:42:00;0.30;;;0.30;;
76656;SDS011;65576;47.714;9.414;2024-03-25T13:44:25;0.45;;;0.30;;
76656;SDS011;65576;47.714;9.414;2024-03-25T13:46:50;1.25;;;0.50;;
76656;SDS011;65576;47.714;9.414;2024-03-25T13:49:16;0.22;;;0.22;;
76656;SDS011;65576;47.714;9.414;2024-03-25T13:51:43;0.35;;;0.28;;
76656;SDS011;65576;47.714;9.414;2024-03-25T13:54:08;0.20;;;0.20;;
76656;SDS011;65576;47.714;9.414;2024-03-25T13:56:34;0.57;;;0.30;;
76656;SDS011;65576;47.714;9.414;2024-03-25T13:58:59;0.80;;;0.30;;
76656;SDS011;65576;47.714;9.414;2024-03-25T14:01:24;0.20;;;0.20;;
76656;SDS011;65576;47.714;9.414;2024-03-25T14:03:50;1.52;;;0.45;;
76656;SDS011;65576;47.714;9.414;2024-03-25T14:06:15;0.40;;;0.40;;
76656;SDS011;65576;47.714;9.414;2024-03-25T14:08:40;0.15;;;0.15;;
76656;SDS011;65576;47.714;9.414;2024-03-25T14:11:07;0.35;;;0.30;;
76656;SDS011;65576;47.714;9.414;2024-03-25T14:13:32;1.67;;;0.13;;
76656;SDS011;65576;47.714;9.414;2024-03-25T14:15:58;0.30;;;0.30;;
76656;SDS011;65576;47.714;9.414;2024-03-25T14:18:23;0.40;;;0.30;;
76656;SDS011;65576;47.714;9.414;2024-03-25T14:20:50;0.60;;;0.40;;
76656;SDS011;65576;47.714;9.414;2024-03-25T14:23:16;0.30;;;0.30;;
76656;SDS011;65576;47.714;9.414;2024-03-25T14:25:41;1.55;;;0.35;;
76656;SDS011;65576;47.714;9.414;2024-03-25T14:28:07;0.38;;;0.30;;
76656;SDS011;65576;47.714;9.414;2024-03-25T14:30:32;0.50;;;0.40;;
76656;SDS011;65576;47.714;9.414;2024-03-25T14:32:57;0.38;;;0.20;;
76656;SDS011;65576;47.714;9.414;2024-03-25T14:35:24;0.20;;;0.20;;
76656;SDS011;65576;47.714;9.414;2024-03-25T14:37:49;0.32;;;0.32;;
76656;SDS011;65576;47.714;9.414;2024-03-25T14:40:15;0.30;;;0.20;;
76656;SDS011;65576;47.714;9.414;2024-03-25T14:42:42;0.30;;;0.30;;